Time;durP1;ratioP1;P1;durP2;ratioP2;P2;SDS_P1;SDS_P2;PMS_P1;PMS_P2;Temp;Humidity;BMP_temperature;BMP_pressure;BME280_temperature;BME280_humidity;BME280_pressure;Samples;Min_cycle;Max_cycle;Signal;HPM_P1;HPM_P2
2023/11/02 00:01:05;;;;;;;7.97;1.60;;;;;;;-146.27;80.76;83121.47;5021063;28;20025;-69
2023/11/02 00:03:32;;;;;;;6.43;1.40;;;;;;;-146.27;81.50;83177.75;5027760;28;20033;-69
2023/11/02 00:05:57;;;;;;;5.03;1.10;;;;;;;-146.27;81.16;83139.56;5027519;28;20432;-69
2023/11/02 00:08:29;;;;;;;6.55;1.85;;;;;;;-146.27;81.07;83141.56;5033910;28;20029;-69
2023/11/02 00:10:54;;;;;;;8.43;1.30;;;;;;;-146.27;81.16;83163.69;5028074;28;20033;-69
2023/11/02 00:13:26;;;;;;;5.05;1.20;;;;;;;-146.27;81.56;83211.91;5029271;28;20108;-68
2023/11/02 00:15:53;;;;;;;10.52;1.25;;;;;;;-146.27;81.78;83157.66;5033465;28;20029;-69
2023/11/02 00:18:18;;;;;;;6.95;1.17;;;;;;;-146.27;81.27;83163.69;5026474;28;20021;-68
2023/11/02 00:20:44;;;;;;;5.25;1.00;;;;;;;-146.27;80.97;83139.56;5034710;28;20496;-69
2023/11/02 00:23:12;;;;;;;5.15;1.10;;;;;;;-146.27;80.80;83141.56;5026461;28;20018;-68
2023/11/02 00:25:53;;;;;;;3.35;1.23;;;;;;;-146.27;80.73;83149.63;5025147;28;20029;-69
2023/11/02 00:28:19;;;;;;;7.93;1.08;;;;;;;-146.27;81.09;83143.59;5029449;28;20108;-70
2023/11/02 00:30:48;;;;;;;9.65;1.10;;;;;;;-146.27;80.97;83171.72;5034833;28;20113;-70
2023/11/02 00:33:15;;;;;;;4.30;1.75;;;;;;;-146.27;80.89;83139.56;5036068;28;20027;-70
2023/11/02 00:35:51;;;;;;;10.95;1.75;;;;;;;-146.27;81.05;83159.66;5030136;28;20119;-70
2023/11/02 00:38:24;;;;;;;6.45;1.15;;;;;;;-146.27;81.00;83155.63;5026323;28;20681;-70
2023/11/02 00:40:50;;;;;;;5.90;1.43;;;;;;;-146.27;80.44;83177.75;5033345;28;20166;-70
2023/11/02 00:43:18;;;;;;;9.57;1.67;;;;;;;-146.27;80.54;83135.53;5031087;28;20104;-70
2023/11/02 00:45:44;;;;;;;6.55;1.50;;;;;;;-146.27;80.68;83153.63;5030157;28;20037;-69
2023/11/02 00:48:27;;;;;;;4.45;1.20;;;;;;;-146.27;80.03;83139.56;5028404;28;20481;-69
2023/11/02 00:51:24;;;;;;;8.38;1.20;;;;;;;-146.27;79.84;83119.47;5030647;28;20037;-68
2023/11/02 00:53:54;;;;;;;8.85;1.38;;;;;;;-146.27;79.68;83105.41;5032940;28;20470;-70
2023/11/02 00:56:20;;;;;;;4.65;1.13;;;;;;;-146.27;79.94;83095.38;5017396;28;20141;-70
2023/11/02 00:58:51;;;;;;;8.80;1.40;;;;;;;-146.27;79.79;83131.53;5036334;28;20514;-71
2023/11/02 01:01:21;;;;;;;4.97;1.40;;;;;;;-146.27;79.88;83135.53;5023131;28;20025;-70
2023/11/02 01:03:55;;;;;;;7.78;1.55;;;;;;;-146.27;80.23;83083.31;5032980;28;20025;-69
2023/11/02 01:06:27;;;;;;;5.95;0.98;;;;;;;-146.27;79.84;83087.31;5030751;28;20056;-70
2023/11/02 01:08:56;;;;;;;4.35;1.10;;;;;;;-146.27;79.80;83131.53;5037239;28;20119;-71
2023/11/02 01:11:31;;;;;;;7.40;1.13;;;;;;;-146.27;79.56;83107.41;5037814;28;20025;-70
2023/11/02 01:13:57;;;;;;;15.77;1.60;;;;;;;-146.27;79.96;83087.31;5037813;28;20048;-70
2023/11/02 01:16:23;;;;;;;3.90;1.17;;;;;;;-146.27;79.51;83103.41;5026435;28;20079;-69
2023/11/02 01:18:49;;;;;;;3.03;1.10;;;;;;;-146.27;79.32;83107.41;5030243;28;20091;-70
2023/11/02 01:21:15;;;;;;;3.20;0.80;;;;;;;-146.27;79.63;83103.41;5032263;28;20041;-69
2023/11/02 01:23:41;;;;;;;7.15;1.58;;;;;;;-146.27;79.20;83099.38;5025186;28;20021;-70
2023/11/02 01:26:50;;;;;;;8.57;1.08;;;;;;;-146.27;79.74;83117.47;5028825;28;20037;-69
2023/11/02 01:29:15;;;;;;;3.70;0.80;;;;;;;-146.27;79.58;83103.41;5027032;28;20042;-69
2023/11/02 01:31:41;;;;;;;8.88;1.23;;;;;;;-146.27;79.81;83135.53;5032219;28;20075;-70
2023/11/02 01:34:06;;;;;;;7.07;1.20;;;;;;;-146.27;79.61;83107.41;5027257;28;20033;-70
2023/11/02 01:36:34;;;;;;;3.67;0.90;;;;;;;-146.27;79.54;83067.25;5040939;28;20025;-69
2023/11/02 01:39:20;;;;;;;3.22;0.95;;;;;;;-146.27;79.78;83117.47;5028955;28;20025;-68
2023/11/02 01:42:06;;;;;;;9.40;1.25;;;;;;;-146.27;79.63;83107.41;5033356;28;20060;-70
2023/11/02 01:44:37;;;;;;;8.43;0.93;;;;;;;-146.27;79.59;83143.59;5034535;28;20128;-69
2023/11/02 01:47:11;;;;;;;5.88;1.10;;;;;;;-146.27;79.50;83115.47;5034897;28;20056;-69
2023/11/02 01:49:49;;;;;;;11.77;1.48;;;;;;;-146.27;79.37;83107.41;5028322;28;20025;-69
2023/11/02 01:52:25;;;;;;;6.80;1.35;;;;;;;-146.27;79.07;83093.34;5029343;28;20474;-69
2023/11/02 01:54:58;;;;;;;8.02;0.90;;;;;;;-146.27;78.89;83071.25;5029416;28;20029;-69
2023/11/02 01:57:41;;;;;;;6.65;1.15;;;;;;;-146.27;78.62;83083.31;5030543;28;20029;-69
2023/11/02 02:00:09;;;;;;;3.05;1.10;;;;;;;-146.27;78.87;83125.50;5029040;28;20128;-68
2023/11/02 02:02:56;;;;;;;5.80;1.20;;;;;;;-146.27;79.14;83103.41;5026873;28;20548;-71
2023/11/02 02:05:41;;;;;;;7.75;1.25;;;;;;;-146.27;78.82;83107.41;5035432;28;20025;-69
2023/11/02 02:08:45;;;;;;;6.13;0.90;;;;;;;-146.27;78.72;83105.41;5031542;28;20032;-69
2023/11/02 02:11:32;;;;;;;5.68;0.88;;;;;;;-146.27;79.31;83135.53;5026324;28;20041;-69
2023/11/02 02:14:04;;;;;;;5.18;1.77;;;;;;;-146.27;79.36;83153.63;5019317;28;20038;-69
2023/11/02 02:16:42;;;;;;;6.13;1.60;;;;;;;-146.27;78.94;83131.53;5029542;28;20050;-69
2023/11/02 02:19:25;;;;;;;6.70;1.02;;;;;;;-146.27;78.97;83091.34;5039509;28;20021;-69
2023/11/02 02:22:02;;;;;;;6.90;1.02;;;;;;;-146.27;78.98;83095.38;5029214;28;20033;-71
2023/11/02 02:24:48;;;;;;;7.45;1.05;;;;;;;-146.27;78.94;83107.41;5028235;28;20410;-69
2023/11/02 02:27:52;;;;;;;9.63;2.28;;;;;;;-146.27;78.80;83071.25;5023081;28;20057;-68
2023/11/02 02:30:44;;;;;;;2.60;1.10;;;;;;;-146.27;78.95;83131.53;5040568;28;20037;-69
2023/11/02 02:33:09;;;;;;;6.10;1.40;;;;;;;-146.27;79.01;83039.09;5026649;28;20025;-70
2023/11/02 02:35:49;;;;;;;6.65;1.17;;;;;;;-146.27;79.27;83135.53;5026124;28;20048;-68
2023/11/02 02:38:19;;;;;;;6.88;1.40;;;;;;;-146.27;79.04;83119.47;5035768;28;20013;-70
2023/11/02 02:41:04;;;;;;;4.78;1.00;;;;;;;-146.27;78.71;83121.47;5027209;28;20022;-69
2023/11/02 02:43:33;;;;;;;8.13;1.33;;;;;;;-146.27;78.83;83135.53;5020696;28;20087;-69
2023/11/02 02:46:01;;;;;;;10.55;1.10;;;;;;;-146.27;79.20;83145.59;5028531;28;20025;-71
2023/11/02 02:48:28;;;;;;;6.55;1.20;;;;;;;-146.27;78.85;83119.47;5029596;28;20034;-68
2023/11/02 02:50:58;;;;;;;2.88;0.85;;;;;;;-146.27;78.58;83081.31;5023529;28;20094;-70
2023/11/02 02:53:28;;;;;;;3.55;1.23;;;;;;;-146.27;78.59;83091.34;5018610;28;20121;-70
2023/11/02 02:55:56;;;;;;;8.77;1.05;;;;;;;-146.27;78.72;83085.31;5011579;28;20550;-70
2023/11/02 02:58:23;;;;;;;3.75;1.00;;;;;;;-146.27;78.54;83157.66;5031078;28;20169;-70
2023/11/02 03:00:50;;;;;;;6.40;0.70;;;;;;;-146.27;78.56;83105.41;5027562;28;20052;-70
2023/11/02 03:03:20;;;;;;;2.58;0.88;;;;;;;-146.27;78.38;83099.38;5024466;28;20499;-71
2023/11/02 03:05:46;;;;;;;8.35;1.58;;;;;;;-146.27;78.41;83105.41;5027087;28;20029;-69
2023/11/02 03:08:14;;;;;;;3.90;1.20;;;;;;;-146.27;78.03;83069.25;5023271;28;20037;-69
2023/11/02 03:10:41;;;;;;;5.55;1.05;;;;;;;-146.27;78.16;83095.38;5032623;28;20026;-69
2023/11/02 03:13:12;;;;;;;4.10;1.20;;;;;;;-146.27;78.16;83055.19;5023436;28;20028;-71
2023/11/02 03:15:42;;;;;;;8.10;1.50;;;;;;;-146.27;78.38;83103.41;5033983;28;20044;-70
2023/11/02 03:18:11;;;;;;;7.47;1.20;;;;;;;-146.27;78.52;83123.50;5038532;28;20123;-70
2023/11/02 03:20:38;;;;;;;5.18;1.15;;;;;;;-146.27;78.53;83139.56;5033817;28;20393;-70
2023/11/02 03:23:15;;;;;;;5.63;0.90;;;;;;;-146.27;78.70;83089.34;5038477;28;20025;-70
2023/11/02 03:26:09;;;;;;;7.15;1.02;;;;;;;-146.27;78.79;83129.53;5023850;28;20029;-70
2023/11/02 03:29:12;;;;;;;6.75;1.52;;;;;;;-146.27;79.01;83113.44;5036401;28;20379;-70
2023/11/02 03:31:59;;;;;;;9.20;0.95;;;;;;;-146.27;78.46;83135.53;5010156;28;20037;-69
2023/11/02 03:34:37;;;;;;;7.93;0.85;;;;;;;-146.27;78.38;83163.69;5025956;28;20067;-71
2023/11/02 03:37:28;;;;;;;6.57;1.17;;;;;;;-146.27;78.25;83071.25;5031247;28;20080;-69
2023/11/02 03:40:29;;;;;;;2.53;0.60;;;;;;;-146.27;78.11;83099.38;5035053;28;20905;-68
2023/11/02 03:43:04;;;;;;;10.68;1.23;;;;;;;-146.27;78.54;83113.44;5023414;28;20432;-70
2023/11/02 03:45:44;;;;;;;2.55;0.60;;;;;;;-146.27;78.03;83075.28;5023775;28;20029;-69
2023/11/02 03:48:25;;;;;;;9.38;1.30;;;;;;;-146.27;77.69;83095.38;5011429;28;20030;-69
2023/11/02 03:51:27;;;;;;;6.65;1.30;;;;;;;-146.27;77.66;83087.31;5025846;28;20056;-69
2023/11/02 03:54:24;;;;;;;7.80;1.20;;;;;;;-146.27;77.53;83075.28;5026164;28;20434;-70
2023/11/02 03:57:08;;;;;;;5.90;0.73;;;;;;;-146.27;77.59;83131.53;5026426;28;20029;-69
2023/11/02 04:00:09;;;;;;;3.33;1.02;;;;;;;-146.27;77.31;83099.38;5019622;28;20032;-69
2023/11/02 04:02:44;;;;;;;7.95;1.20;;;;;;;-146.27;76.90;83071.25;5015594;28;20034;-69
2023/11/02 04:05:19;;;;;;;5.07;1.13;;;;;;;-146.27;76.70;83079.28;5030610;28;20032;-69
2023/11/02 04:07:53;;;;;;;9.32;1.35;;;;;;;-146.27;76.26;83085.31;5032094;28;20039;-69
2023/11/02 04:10:23;;;;;;;8.23;1.30;;;;;;;-146.27;75.91;83063.22;5032937;28;20047;-69
2023/11/02 04:12:54;;;;;;;4.20;0.90;;;;;;;-146.27;75.85;83047.16;5028782;28;20056;-69
2023/11/02 04:15:19;;;;;;;5.80;1.23;;;;;;;-146.27;75.46;83075.28;5039127;28;20033;-69
2023/11/02 04:17:44;;;;;;;5.10;1.10;;;;;;;-146.27;75.89;83071.25;5025252;28;20057;-69
2023/11/02 04:20:10;;;;;;;6.10;1.48;;;;;;;-146.27;75.45;83021.03;5032940;28;20037;-70
2023/11/02 04:22:38;;;;;;;5.10;1.02;;;;;;;-146.27;75.44;83093.34;5030931;28;20025;-69
2023/11/02 04:25:04;;;;;;;5.38;1.15;;;;;;;-146.27;74.92;83039.09;5036035;28;20554;-68
2023/11/02 04:27:29;;;;;;;5.78;0.70;;;;;;;-146.27;74.77;83035.09;5032426;28;20139;-68
2023/11/02 04:29:55;;;;;;;5.60;1.08;;;;;;;-146.27;74.17;83059.19;5033084;28;20160;-68
2023/11/02 04:32:20;;;;;;;4.43;0.73;;;;;;;-146.27;74.50;83069.25;5035828;28;20509;-70
2023/11/02 04:34:46;;;;;;;3.90;0.77;;;;;;;-146.27;74.47;83049.16;5038101;28;20440;-69
2023/11/02 04:37:16;;;;;;;7.10;1.00;;;;;;;-146.27;74.40;83051.16;5031299;28;20060;-69
2023/11/02 04:39:43;;;;;;;6.30;1.45;;;;;;;-146.27;73.75;83006.97;5029092;28;20057;-69
2023/11/02 04:42:09;;;;;;;3.90;1.00;;;;;;;-146.27;73.77;83055.19;5031852;28;20043;-69
2023/11/02 04:44:35;;;;;;;2.58;0.70;;;;;;;-146.27;73.39;83065.22;5030622;28;20029;-70
2023/11/02 04:47:00;;;;;;;6.03;0.80;;;;;;;-146.27;73.32;82990.88;5025576;28;20084;-69
2023/11/02 04:49:26;;;;;;;8.25;0.73;;;;;;;-146.27;73.20;83033.09;5034728;28;20037;-67
2023/11/02 04:52:02;;;;;;;6.75;0.85;;;;;;;-146.27;73.20;83031.06;5031462;28;20108;-67
2023/11/02 04:54:29;;;;;;;5.55;1.40;;;;;;;-146.27;72.85;82990.88;5032047;28;20374;-68
2023/11/02 04:56:55;;;;;;;7.13;1.20;;;;;;;-146.27;73.31;83055.19;5028744;28;20113;-68
2023/11/02 04:59:21;;;;;;;8.23;1.65;;;;;;;-146.27;72.83;83049.16;5033737;28;20108;-68
2023/11/02 05:01:48;;;;;;;5.70;1.13;;;;;;;-146.27;72.61;82984.88;5032050;28;20509;-69
2023/11/02 05:04:13;;;;;;;5.25;0.80;;;;;;;-146.27;72.71;83031.06;5029812;28;20043;-70
2023/11/02 05:06:38;;;;;;;2.28;0.73;;;;;;;-146.27;72.71;83041.13;5029879;28;20026;-69
2023/11/02 05:09:05;;;;;;;7.90;1.25;;;;;;;-146.27;72.45;83033.09;5027830;28;20036;-70
2023/11/02 05:11:31;;;;;;;1.55;0.70;;;;;;;-146.27;73.74;83041.13;5022166;28;20032;-69
2023/11/02 05:13:56;;;;;;;4.22;0.70;;;;;;;-146.27;74.05;83019.03;5026704;28;20115;-70
2023/11/02 05:16:21;;;;;;;3.13;0.80;;;;;;;-146.27;73.76;83004.94;5028121;28;20061;-70
2023/11/02 05:18:47;;;;;;;4.38;1.27;;;;;;;-146.27;73.45;83000.94;5030984;28;20033;-69
2023/11/02 05:21:12;;;;;;;5.63;0.73;;;;;;;-146.27;73.06;83059.19;5034681;28;20060;-69
2023/11/02 05:23:37;;;;;;;3.80;0.70;;;;;;;-146.27;72.82;83043.13;5032304;28;20083;-69
2023/11/02 05:26:03;;;;;;;4.10;0.93;;;;;;;-146.27;72.43;83055.19;5048029;28;20079;-69
2023/11/02 05:28:29;;;;;;;4.50;0.70;;;;;;;-146.27;71.94;83033.09;5032137;28;20091;-70
2023/11/02 05:30:55;;;;;;;4.00;1.02;;;;;;;-146.27;72.50;83057.19;5042143;28;20486;-69
2023/11/02 05:33:21;;;;;;;2.08;0.80;;;;;;;-146.27;72.33;83057.19;5018170;28;20030;-69
2023/11/02 05:35:46;;;;;;;24.63;0.80;;;;;;;-146.27;72.22;83051.16;5044066;28;20021;-69
2023/11/02 05:38:12;;;;;;;2.47;0.77;;;;;;;-146.27;72.76;83077.28;5037987;28;20084;-69
2023/11/02 05:40:37;;;;;;;3.53;1.17;;;;;;;-146.27;74.47;83099.38;5027526;28;20100;-70
2023/11/02 05:43:02;;;;;;;5.55;0.60;;;;;;;-146.27;74.17;83043.13;5023087;28;20485;-71
2023/11/02 05:45:28;;;;;;;2.80;0.60;;;;;;;-146.27;74.20;83067.25;5026503;28;20117;-70
2023/11/02 05:47:53;;;;;;;1.50;0.68;;;;;;;-146.27;74.39;83073.25;5031132;28;20099;-70
2023/11/02 05:50:19;;;;;;;1.33;0.90;;;;;;;-146.27;75.51;83103.41;5027554;28;20025;-70
2023/11/02 05:52:44;;;;;;;6.00;1.10;;;;;;;-146.27;76.83;83119.47;5031174;28;20021;-71
2023/11/02 05:55:09;;;;;;;2.45;0.55;;;;;;;-146.27;77.77;83155.63;5025341;28;20061;-69
2023/11/02 05:57:35;;;;;;;5.88;0.60;;;;;;;-146.27;78.17;83105.41;5037903;28;20021;-70
2023/11/02 06:00:00;;;;;;;0.80;0.40;;;;;;;-146.27;78.90;83155.63;5032235;28;20028;-70
2023/11/02 06:02:28;;;;;;;2.13;0.75;;;;;;;-146.27;79.33;83179.75;5028099;28;20022;-70
2023/11/02 06:04:53;;;;;;;2.17;0.43;;;;;;;-146.27;80.05;83205.88;5025394;28;20060;-70
2023/11/02 06:07:18;;;;;;;1.27;0.57;;;;;;;-146.27;80.15;83171.72;5024928;28;20060;-69
2023/11/02 06:09:44;;;;;;;5.28;0.82;;;;;;;-146.27;79.80;83171.72;5020961;28;20026;-70
2023/11/02 06:12:10;;;;;;;3.08;0.60;;;;;;;-146.27;80.24;83213.91;5022521;28;20151;-69
2023/11/02 06:14:36;;;;;;;3.25;0.73;;;;;;;-146.27;79.99;83197.84;5028661;28;20152;-70
2023/11/02 06:17:02;;;;;;;1.23;0.52;;;;;;;-146.27;80.21;83219.94;5030529;28;20053;-70
2023/11/02 06:19:27;;;;;;;1.75;0.50;;;;;;;-146.27;79.66;83161.66;5022160;28;20040;-71
2023/11/02 06:21:53;;;;;;;0.77;0.40;;;;;;;-146.27;79.56;83203.88;5025843;28;20111;-69
2023/11/02 06:24:18;;;;;;;10.75;1.15;;;;;;;-146.27;79.99;83199.84;5029009;28;20159;-69
2023/11/02 06:26:43;;;;;;;4.45;1.50;;;;;;;-146.27;79.46;83123.50;5044014;28;20078;-70
2023/11/02 06:29:11;;;;;;;4.07;1.08;;;;;;;-146.27;79.76;83127.50;5028720;28;20116;-70
2023/11/02 06:31:36;;;;;;;3.47;0.60;;;;;;;-146.27;79.37;83063.22;5023167;28;20116;-72
2023/11/02 06:34:02;;;;;;;4.50;0.68;;;;;;;-146.27;79.69;83129.53;5036448;28;20112;-70
2023/11/02 06:36:27;;;;;;;3.95;0.75;;;;;;;-146.27;79.49;83183.78;5028916;28;20037;-68
2023/11/02 06:38:53;;;;;;;3.28;0.93;;;;;;;-146.27;79.25;83107.41;5025816;28;20517;-68
2023/11/02 06:41:18;;;;;;;2.40;0.50;;;;;;;-146.27;79.48;83099.38;5028213;28;20037;-70
2023/11/02 06:43:44;;;;;;;4.28;0.75;;;;;;;-146.27;80.05;83081.31;5037530;28;20029;-71
2023/11/02 06:46:09;;;;;;;0.75;0.40;;;;;;;-146.27;79.92;83087.31;5034220;28;20104;-69
2023/11/02 06:48:35;;;;;;;4.18;1.00;;;;;;;-146.27;80.32;83111.44;5029804;28;20033;-70
2023/11/02 06:51:00;;;;;;;3.45;0.80;;;;;;;-146.27;80.29;83107.41;5028466;28;20389;-69
2023/11/02 06:53:26;;;;;;;8.18;0.55;;;;;;;-146.27;80.26;83083.31;5021464;28;20033;-71
2023/11/02 06:55:51;;;;;;;8.88;1.00;;;;;;;-146.27;80.16;83083.31;5025526;28;20033;-69
2023/11/02 06:58:17;;;;;;;15.05;2.05;;;;;;;-146.27;80.35;83119.47;5036623;28;20021;-69
2023/11/02 07:00:43;;;;;;;1.35;0.68;;;;;;;-146.27;80.03;83099.38;5030668;28;20047;-69
2023/11/02 07:03:09;;;;;;;1.75;0.88;;;;;;;-146.27;80.54;83143.59;5031289;28;20519;-70
2023/11/02 07:05:35;;;;;;;3.95;0.90;;;;;;;-146.27;81.02;83135.53;5029012;28;20436;-69
2023/11/02 07:08:00;;;;;;;5.15;0.75;;;;;;;-146.27;81.13;83115.47;5025518;28;20022;-69
2023/11/02 07:10:26;;;;;;;3.65;0.65;;;;;;;-146.27;81.01;83115.47;5025912;28;20095;-70
2023/11/02 07:12:52;;;;;;;1.40;0.75;;;;;;;-146.27;81.14;83115.47;5023622;28;20025;-70
2023/11/02 07:15:18;;;;;;;1.50;0.70;;;;;;;-146.27;81.25;83125.50;5024041;28;20040;-69
2023/11/02 07:17:43;;;;;;;8.73;0.93;;;;;;;-146.27;81.63;83089.34;5029725;28;20075;-69
2023/11/02 07:20:09;;;;;;;1.33;0.43;;;;;;;-146.27;81.52;83087.31;5028290;28;20139;-69
2023/11/02 07:22:35;;;;;;;2.50;0.52;;;;;;;-146.27;81.32;83075.28;5025391;28;20157;-70
2023/11/02 07:25:03;;;;;;;0.40;0.40;;;;;;;-146.27;81.20;83075.28;5033067;28;20025;-71
2023/11/02 07:27:29;;;;;;;3.63;0.60;;;;;;;-146.27;81.08;83059.19;5027602;28;20036;-69
2023/11/02 07:29:55;;;;;;;1.55;0.60;;;;;;;-146.27;81.68;83115.47;5026913;28;20037;-70
2023/11/02 07:32:20;;;;;;;2.08;0.70;;;;;;;-146.27;81.41;83109.44;5032070;28;20037;-70
2023/11/02 07:34:46;;;;;;;3.05;0.60;;;;;;;-146.27;81.75;83143.59;5033543;28;20108;-70
2023/11/02 07:37:12;;;;;;;3.40;0.60;;;;;;;-146.27;82.10;83067.25;5039555;28;20013;-71
2023/11/02 07:39:37;;;;;;;2.00;0.70;;;;;;;-146.27;82.79;83101.38;5035167;28;20171;-69
2023/11/02 07:42:03;;;;;;;2.15;0.70;;;;;;;-146.27;83.85;83091.34;5030840;28;20048;-70
2023/11/02 07:44:29;;;;;;;2.63;0.88;;;;;;;-146.27;83.31;83041.13;5031580;28;20025;-70
2023/11/02 07:46:54;;;;;;;1.83;0.88;;;;;;;-146.27;84.19;83109.44;5015050;28;20030;-74
2023/11/02 07:49:20;;;;;;;3.00;0.90;;;;;;;-146.27;84.37;83079.28;5044446;28;20032;-73
2023/11/02 07:51:45;;;;;;;3.00;0.93;;;;;;;-146.27;84.70;83079.28;5031929;28;20444;-73
2023/11/02 07:54:10;;;;;;;3.50;0.75;;;;;;;-146.27;85.13;83065.22;5021064;28;20504;-73
2023/11/02 07:56:38;;;;;;;2.97;1.10;;;;;;;-146.27;85.25;83089.34;5042870;28;20025;-72
2023/11/02 07:59:04;;;;;;;3.58;1.00;;;;;;;-146.27;85.00;83075.28;5032760;28;20072;-72
2023/11/02 08:01:30;;;;;;;5.72;1.05;;;;;;;-146.27;85.28;83059.19;5033626;28;20025;-71
2023/11/02 08:03:56;;;;;;;2.22;0.80;;;;;;;-146.27;84.94;83055.19;5033629;28;20031;-71
2023/11/02 08:06:23;;;;;;;3.63;0.82;;;;;;;-146.27;85.07;83057.19;5033286;28;20419;-72
2023/11/02 08:08:48;;;;;;;2.67;1.00;;;;;;;-146.27;84.88;83037.09;5031415;28;20031;-72
2023/11/02 08:11:14;;;;;;;8.07;1.13;;;;;;;-146.27;84.77;83063.22;5033174;28;20029;-72
2023/11/02 08:13:39;;;;;;;4.78;1.23;;;;;;;-146.27;83.96;83031.06;5032626;28;20029;-72
2023/11/02 08:16:05;;;;;;;3.13;0.95;;;;;;;-146.27;83.63;83013.00;5027554;28;20077;-72
2023/11/02 08:18:30;;;;;;;11.45;0.88;;;;;;;-146.27;83.55;83010.97;5032824;28;20029;-72
2023/11/02 08:20:55;;;;;;;6.32;0.85;;;;;;;-146.27;83.13;83041.13;5032026;28;20032;-72
2023/11/02 08:23:21;;;;;;;4.07;0.98;;;;;;;-146.27;82.27;83002.94;5034222;28;20023;-72
2023/11/02 08:25:47;;;;;;;4.93;0.98;;;;;;;-146.27;81.49;83002.94;5035316;28;20033;-71
2023/11/02 08:28:12;;;;;;;6.40;1.27;;;;;;;-146.27;81.06;83006.97;5053174;28;20037;-74
2023/11/02 08:30:38;;;;;;;7.75;1.10;;;;;;;-146.27;79.91;82970.81;5045803;28;20080;-73
2023/11/02 08:33:03;;;;;;;8.57;0.98;;;;;;;-146.27;79.50;82982.84;5052988;28;20108;-73
2023/11/02 08:35:29;;;;;;;7.40;0.90;;;;;;;-146.27;78.88;82970.81;5052889;28;20492;-73
2023/11/02 08:37:54;;;;;;;8.27;1.00;;;;;;;-146.27;78.03;82942.66;5052916;28;20021;-74
2023/11/02 08:40:20;;;;;;;2.83;0.80;;;;;;;-146.27;77.55;82894.47;5043657;28;20528;-73
2023/11/02 08:42:47;;;;;;;3.83;0.85;;;;;;;-146.27;76.68;82948.69;5031594;28;20489;-73
2023/11/02 08:45:14;;;;;;;4.13;0.70;;;;;;;-146.27;75.86;82946.69;5026399;28;20513;-74
2023/11/02 08:47:41;;;;;;;8.20;1.73;;;;;;;-146.27;75.50;82922.59;5038866;28;20025;-73
2023/11/02 08:50:08;;;;;;;5.85;1.00;;;;;;;-146.27;74.06;82898.47;5032632;28;20366;-74
2023/11/02 08:52:33;;;;;;;7.50;1.17;;;;;;;-146.27;73.61;82906.50;5032406;28;20493;-74
2023/11/02 08:55:00;;;;;;;7.00;1.13;;;;;;;-146.27;73.80;82898.47;5018059;28;20027;-73
2023/11/02 08:57:26;;;;;;;10.43;0.95;;;;;;;-146.27;73.81;82886.41;5030623;28;20068;-73
2023/11/02 08:59:51;;;;;;;8.93;1.58;;;;;;;-146.27;74.29;82934.63;5032342;28;20112;-74
2023/11/02 09:02:17;;;;;;;7.95;1.50;;;;;;;-146.27;75.21;82968.78;5030498;28;20477;-74
2023/11/02 09:04:42;;;;;;;8.75;1.10;;;;;;;-146.27;75.81;82930.63;5031702;28;20030;-74
2023/11/02 09:07:08;;;;;;;7.13;1.23;;;;;;;-146.27;76.48;83002.94;5031820;28;20109;-74
2023/11/02 09:09:33;;;;;;;10.40;1.40;;;;;;;-146.27;76.86;83010.97;5031397;28;20075;-74
2023/11/02 09:11:59;;;;;;;8.82;1.52;;;;;;;-146.27;78.35;83059.19;5035829;28;20021;-74
2023/11/02 09:14:24;;;;;;;7.20;1.38;;;;;;;-146.27;78.90;83008.97;5030036;28;20083;-74
2023/11/02 09:16:50;;;;;;;11.82;1.30;;;;;;;-146.27;79.83;83077.28;5042589;28;20072;-74
2023/11/02 09:19:15;;;;;;;8.93;1.08;;;;;;;-146.27;80.75;83099.38;5033546;28;20029;-74
2023/11/02 09:21:42;;;;;;;6.00;1.35;;;;;;;-146.27;81.59;83101.38;5031751;28;20104;-74
2023/11/02 09:24:08;;;;;;;6.88;1.35;;;;;;;-146.27;81.94;83173.72;5029058;28;20104;-74
2023/11/02 09:26:34;;;;;;;9.98;1.25;;;;;;;-146.27;82.28;83195.81;5031483;28;20091;-75
2023/11/02 09:29:00;;;;;;;10.43;1.95;;;;;;;-146.27;82.20;83163.69;5031566;28;20060;-75
2023/11/02 09:31:29;;;;;;;6.40;1.10;;;;;;;-146.27;83.33;83227.97;5030744;28;20037;-74
2023/11/02 09:33:56;;;;;;;12.43;1.60;;;;;;;-146.27;82.68;83191.81;5025828;28;20018;-74
2023/11/02 09:36:23;;;;;;;10.30;1.15;;;;;;;-146.27;82.82;83159.66;5026198;28;20482;-74
2023/11/02 09:38:48;;;;;;;6.53;1.00;;;;;;;-146.27;83.17;83201.84;5031732;28;20056;-74
2023/11/02 09:41:14;;;;;;;9.63;1.05;;;;;;;-146.27;83.63;83215.91;5033828;28;20457;-74
2023/11/02 09:43:40;;;;;;;5.95;1.60;;;;;;;-146.27;83.68;83193.81;5042177;28;20393;-74
2023/11/02 09:46:06;;;;;;;8.00;1.25;;;;;;;-146.27;84.29;83203.88;5036545;28;20034;-76
2023/11/02 09:48:32;;;;;;;11.85;1.45;;;;;;;-146.27;84.01;83137.56;5011769;28;20030;-75
2023/11/02 09:50:58;;;;;;;6.43;1.10;;;;;;;-146.27;84.94;83236.00;5012142;28;20406;-70
2023/11/02 09:53:28;;;;;;;12.45;1.30;;;;;;;-146.27;85.03;83167.69;5018740;28;20116;-71
2023/11/02 09:55:54;;;;;;;12.05;1.42;;;;;;;-146.27;85.45;83211.91;5031660;28;20120;-71
2023/11/02 09:58:22;;;;;;;3.47;1.15;;;;;;;-146.27;85.35;83197.84;5028749;28;20021;-71
2023/11/02 10:00:47;;;;;;;11.18;1.77;;;;;;;-146.27;86.02;83256.09;5043759;28;20477;-70
2023/11/02 10:03:13;;;;;;;12.15;1.35;;;;;;;-146.27;85.69;83236.00;5032867;28;20044;-70
2023/11/02 10:05:38;;;;;;;8.30;0.77;;;;;;;-146.27;86.24;83308.34;5030114;28;20025;-72
2023/11/02 10:08:05;;;;;;;4.53;1.02;;;;;;;-146.27;85.29;83240.03;5011540;28;20072;-70
2023/11/02 10:10:32;;;;;;;11.00;1.38;;;;;;;-146.27;84.13;83203.88;5013761;28;20051;-71
2023/11/02 10:12:59;;;;;;;10.60;1.63;;;;;;;-146.27;84.55;83227.97;5044355;28;20021;-70
2023/11/02 10:15:24;;;;;;;8.20;1.35;;;;;;;-146.27;83.75;83183.78;5030664;28;20394;-70
2023/11/02 10:17:50;;;;;;;11.77;0.80;;;;;;;-146.27;82.82;83169.69;5029440;28;20041;-71
2023/11/02 10:20:18;;;;;;;7.22;0.95;;;;;;;-146.27;82.35;83139.56;5030175;28;20036;-69
2023/11/02 10:22:56;;;;;;;7.05;1.10;;;;;;;-146.27;81.19;83167.69;5030643;28;20055;-70
2023/11/02 10:25:22;;;;;;;5.30;1.00;;;;;;;-146.27;80.77;83139.56;5031093;28;20028;-71
2023/11/02 10:27:47;;;;;;;9.65;0.98;;;;;;;-146.27;80.86;83167.69;5031460;28;20029;-69
2023/11/02 10:30:14;;;;;;;11.07;1.45;;;;;;;-146.27;81.84;83229.97;5037009;28;20044;-72
2023/11/02 10:32:39;;;;;;;8.73;1.30;;;;;;;-146.27;82.40;83232.00;5039790;28;20905;-70
2023/11/02 10:35:06;;;;;;;3.88;1.08;;;;;;;-146.27;82.41;83155.63;5026776;28;20028;-70
2023/11/02 10:37:32;;;;;;;11.98;1.58;;;;;;;-146.27;82.64;83225.97;5041867;28;20441;-69
2023/11/02 10:39:59;;;;;;;3.33;1.55;;;;;;;-146.27;81.98;83209.88;5030691;28;20442;-70
2023/11/02 10:42:26;;;;;;;11.50;1.30;;;;;;;-146.27;82.25;83236.00;5033092;28;20025;-72
2023/11/02 10:44:52;;;;;;;6.13;1.15;;;;;;;-146.27;83.29;83227.97;5031508;28;20116;-70
2023/11/02 10:47:21;;;;;;;8.05;1.77;;;;;;;-146.27;83.36;83248.06;5044176;28;20548;-70
2023/11/02 10:49:52;;;;;;;6.57;1.00;;;;;;;-146.27;83.77;83205.88;5031716;28;20033;-70
2023/11/02 10:52:27;;;;;;;6.55;0.90;;;;;;;-146.27;83.24;83229.97;5030640;28;20086;-71
2023/11/02 10:55:17;;;;;;;9.77;1.27;;;;;;;-146.27;82.43;83177.75;5037521;28;20036;-71
2023/11/02 10:57:44;;;;;;;9.63;1.63;;;;;;;-146.27;81.96;83211.91;5016277;28;20030;-71
2023/11/02 11:00:11;;;;;;;17.05;1.70;;;;;;;-146.27;81.50;83207.88;5010478;28;20654;-72
2023/11/02 11:02:39;;;;;;;12.43;1.45;;;;;;;-146.27;80.97;83153.63;5010656;28;20026;-70
2023/11/02 11:05:05;;;;;;;10.45;1.25;;;;;;;-146.27;80.26;83187.78;5026134;28;20440;-71
2023/11/02 11:07:35;;;;;;;7.97;1.33;;;;;;;-146.27;79.37;83155.63;5028965;28;20481;-71
2023/11/02 11:10:03;;;;;;;8.05;0.90;;;;;;;-146.27;78.77;83139.56;5038722;28;20028;-70
2023/11/02 11:12:30;;;;;;;6.28;1.00;;;;;;;-146.27;78.34;83163.69;5029403;28;20110;-71
2023/11/02 11:14:57;;;;;;;11.38;1.30;;;;;;;-146.27;77.56;83063.22;5027435;28;20018;-71
2023/11/02 11:17:23;;;;;;;10.27;1.70;;;;;;;-146.27;76.87;83153.63;5032885;28;20416;-70
2023/11/02 11:19:50;;;;;;;7.20;1.25;;;;;;;-146.27;76.11;83099.38;5034982;28;20478;-69
2023/11/02 11:22:19;;;;;;;8.57;1.35;;;;;;;-146.27;76.27;83121.47;5032561;28;20028;-72
2023/11/02 11:24:54;;;;;;;6.95;1.15;;;;;;;-146.27;75.45;83031.06;5042071;28;20025;-70
2023/11/02 11:27:34;;;;;;;9.27;1.10;;;;;;;-146.27;75.43;83017.00;5030246;28;20147;-70